sensor_id;sensor_type;location;lat;lon;timestamp;temperature;humidity
14705;DHT22;7442;50.840;3.396;2022-09-13T00:01:37;26.80;53.20
14705;DHT22;7442;50.840;3.396;2022-09-13T00:04:07;26.80;53.20
14705;DHT22;7442;50.840;3.396;2022-09-13T00:06:38;26.80;53.10
14705;DHT22;7442;50.840;3.396;2022-09-13T00:09:08;26.80;53.10
14705;DHT22;7442;50.840;3.396;2022-09-13T00:11:38;26.80;53.10
14705;DHT22;7442;50.840;3.396;2022-09-13T00:14:08;26.80;53.10
14705;DHT22;7442;50.840;3.396;2022-09-13T00:16:38;26.80;53.00
14705;DHT22;7442;50.840;3.396;2022-09-13T00:19:08;26.80;53.10
14705;DHT22;7442;50.840;3.396;2022-09-13T00:21:38;26.80;52.90
14705;DHT22;7442;50.840;3.396;2022-09-13T00:24:08;26.80;52.90
14705;DHT22;7442;50.840;3.396;2022-09-13T00:26:39;26.80;53.00
14705;DHT22;7442;50.840;3.396;2022-09-13T00:29:09;26.80;53.00
14705;DHT22;7442;50.840;3.396;2022-09-13T00:31:39;26.80;53.10
14705;DHT22;7442;50.840;3.396;2022-09-13T00:34:09;26.80;53.10
14705;DHT22;7442;50.840;3.396;2022-09-13T00:36:39;26.80;53.10
14705;DHT22;7442;50.840;3.396;2022-09-13T00:39:10;26.80;53.10
14705;DHT22;7442;50.840;3.396;2022-09-13T00:41:41;26.80;53.00
14705;DHT22;7442;50.840;3.396;2022-09-13T00:47:16;26.90;52.90
14705;DHT22;7442;50.840;3.396;2022-09-13T00:49:48;26.90;52.80
14705;DHT22;7442;50.840;3.396;2022-09-13T00:52:21;26.90;52.80
14705;DHT22;7442;50.840;3.396;2022-09-13T00:54:58;26.80;52.80
14705;DHT22;7442;50.840;3.396;2022-09-13T00:57:28;26.80;52.90
14705;DHT22;7442;50.840;3.396;2022-09-13T01:00:06;26.80;53.00
14705;DHT22;7442;50.840;3.396;2022-09-13T01:02:49;26.80;53.00
14705;DHT22;7442;50.840;3.396;2022-09-13T01:05:21;26.80;53.00
14705;DHT22;7442;50.840;3.396;2022-09-13T01:07:54;26.80;53.00
14705;DHT22;7442;50.840;3.396;2022-09-13T01:10:25;26.70;53.00
14705;DHT22;7442;50.840;3.396;2022-09-13T01:13:04;26.70;53.10
14705;DHT22;7442;50.840;3.396;2022-09-13T01:15:36;26.80;53.10
14705;DHT22;7442;50.840;3.396;2022-09-13T01:18:07;26.80;53.10
14705;DHT22;7442;50.840;3.396;2022-09-13T01:30:05;26.80;52.90
14705;DHT22;7442;50.840;3.396;2022-09-13T01:38:43;26.80;52.90
14705;DHT22;7442;50.840;3.396;2022-09-13T01:41:33;26.70;53.00
14705;DHT22;7442;50.840;3.396;2022-09-13T01:47:05;26.70;53.20
14705;DHT22;7442;50.840;3.396;2022-09-13T01:53:00;26.60;53.20
14705;DHT22;7442;50.840;3.396;2022-09-13T01:55:45;26.60;53.30
14705;DHT22;7442;50.840;3.396;2022-09-13T02:01:10;26.50;53.50
14705;DHT22;7442;50.840;3.396;2022-09-13T02:03:43;26.60;53.50
14705;DHT22;7442;50.840;3.396;2022-09-13T02:06:14;26.60;53.50
14705;DHT22;7442;50.840;3.396;2022-09-13T02:08:48;26.60;53.40
14705;DHT22;7442;50.840;3.396;2022-09-13T02:11:18;26.60;53.40
14705;DHT22;7442;50.840;3.396;2022-09-13T02:13:56;26.70;53.30
14705;DHT22;7442;50.840;3.396;2022-09-13T02:16:33;26.70;53.30
14705;DHT22;7442;50.840;3.396;2022-09-13T02:19:02;26.70;53.20
14705;DHT22;7442;50.840;3.396;2022-09-13T02:21:35;26.70;53.00
14705;DHT22;7442;50.840;3.396;2022-09-13T02:24:12;26.70;53.00
14705;DHT22;7442;50.840;3.396;2022-09-13T02:26:44;26.70;53.00
14705;DHT22;7442;50.840;3.396;2022-09-13T02:29:17;26.70;53.00
14705;DHT22;7442;50.840;3.396;2022-09-13T02:34:38;26.70;53.10
14705;DHT22;7442;50.840;3.396;2022-09-13T02:37:11;26.60;53.20
14705;DHT22;7442;50.840;3.396;2022-09-13T02:39:48;26.50;53.30
14705;DHT22;7442;50.840;3.396;2022-09-13T02:42:19;26.50;53.50
14705;DHT22;7442;50.840;3.396;2022-09-13T02:44:55;26.50;53.50
14705;DHT22;7442;50.840;3.396;2022-09-13T02:47:55;26.50;53.50
14705;DHT22;7442;50.840;3.396;2022-09-13T02:50:59;26.50;53.50
14705;DHT22;7442;50.840;3.396;2022-09-13T02:53:52;26.50;53.50
14705;DHT22;7442;50.840;3.396;2022-09-13T02:56:21;26.50;53.60
14705;DHT22;7442;50.840;3.396;2022-09-13T03:01:34;26.50;53.60
14705;DHT22;7442;50.840;3.396;2022-09-13T03:04:04;26.50;53.70
14705;DHT22;7442;50.840;3.396;2022-09-13T03:06:36;26.40;53.60
14705;DHT22;7442;50.840;3.396;2022-09-13T03:09:08;26.40;53.60
14705;DHT22;7442;50.840;3.396;2022-09-13T03:11:58;26.50;53.60
14705;DHT22;7442;50.840;3.396;2022-09-13T03:17:12;26.50;53.60
14705;DHT22;7442;50.840;3.396;2022-09-13T03:19:53;26.40;53.60
14705;DHT22;7442;50.840;3.396;2022-09-13T03:25:15;26.40;53.80
14705;DHT22;7442;50.840;3.396;2022-09-13T03:30:35;26.40;53.80
14705;DHT22;7442;50.840;3.396;2022-09-13T03:36:15;26.50;53.60
14705;DHT22;7442;50.840;3.396;2022-09-13T03:38:51;26.50;53.60
14705;DHT22;7442;50.840;3.396;2022-09-13T03:41:18;26.50;53.50
14705;DHT22;7442;50.840;3.396;2022-09-13T03:43:57;26.50;53.60
14705;DHT22;7442;50.840;3.396;2022-09-13T03:46:32;26.40;53.50
14705;DHT22;7442;50.840;3.396;2022-09-13T03:49:06;26.40;53.60
14705;DHT22;7442;50.840;3.396;2022-09-13T03:51:38;26.30;53.70
14705;DHT22;7442;50.840;3.396;2022-09-13T03:54:13;26.30;53.70
14705;DHT22;7442;50.840;3.396;2022-09-13T03:56:41;26.30;53.80
14705;DHT22;7442;50.840;3.396;2022-09-13T03:59:11;26.30;53.90
14705;DHT22;7442;50.840;3.396;2022-09-13T04:01:41;26.30;54.00
14705;DHT22;7442;50.840;3.396;2022-09-13T04:04:13;26.30;53.90
14705;DHT22;7442;50.840;3.396;2022-09-13T04:06:44;26.30;53.90
14705;DHT22;7442;50.840;3.396;2022-09-13T04:09:14;26.30;53.80
14705;DHT22;7442;50.840;3.396;2022-09-13T04:11:45;26.30;53.80
14705;DHT22;7442;50.840;3.396;2022-09-13T04:14:15;26.40;53.80
14705;DHT22;7442;50.840;3.396;2022-09-13T04:16:45;26.30;53.70
14705;DHT22;7442;50.840;3.396;2022-09-13T04:19:15;26.30;53.70
14705;DHT22;7442;50.840;3.396;2022-09-13T04:21:52;26.30;53.80
14705;DHT22;7442;50.840;3.396;2022-09-13T04:24:22;26.20;53.90
14705;DHT22;7442;50.840;3.396;2022-09-13T04:26:52;26.20;53.90
14705;DHT22;7442;50.840;3.396;2022-09-13T04:29:24;26.30;54.00
14705;DHT22;7442;50.840;3.396;2022-09-13T04:31:55;26.20;54.00
14705;DHT22;7442;50.840;3.396;2022-09-13T04:34:25;26.20;53.90
14705;DHT22;7442;50.840;3.396;2022-09-13T04:36:56;26.20;53.90
14705;DHT22;7442;50.840;3.396;2022-09-13T04:39:26;26.20;54.00
14705;DHT22;7442;50.840;3.396;2022-09-13T04:41:56;26.20;54.10
14705;DHT22;7442;50.840;3.396;2022-09-13T04:44:27;26.20;54.10
14705;DHT22;7442;50.840;3.396;2022-09-13T04:46:57;26.20;54.10
14705;DHT22;7442;50.840;3.396;2022-09-13T04:49:28;26.20;54.10
14705;DHT22;7442;50.840;3.396;2022-09-13T04:51:58;26.20;54.10
14705;DHT22;7442;50.840;3.396;2022-09-13T04:54:28;26.20;54.00
14705;DHT22;7442;50.840;3.396;2022-09-13T04:56:59;26.20;54.00
14705;DHT22;7442;50.840;3.396;2022-09-13T04:59:29;26.20;54.00
14705;DHT22;7442;50.840;3.396;2022-09-13T05:01:59;26.20;54.10
14705;DHT22;7442;50.840;3.396;2022-09-13T05:04:29;26.10;54.10
14705;DHT22;7442;50.840;3.396;2022-09-13T05:06:59;26.10;54.20
14705;DHT22;7442;50.840;3.396;2022-09-13T05:09:29;26.10;54.20
14705;DHT22;7442;50.840;3.396;2022-09-13T05:11:59;26.10;54.30
14705;DHT22;7442;50.840;3.396;2022-09-13T05:14:29;26.00;54.30
14705;DHT22;7442;50.840;3.396;2022-09-13T05:16:59;26.10;54.30
14705;DHT22;7442;50.840;3.396;2022-09-13T05:19:29;26.20;54.30
14705;DHT22;7442;50.840;3.396;2022-09-13T05:22:00;26.20;54.60
14705;DHT22;7442;50.840;3.396;2022-09-13T05:24:30;26.20;54.30
14705;DHT22;7442;50.840;3.396;2022-09-13T05:27:01;26.20;54.50
14705;DHT22;7442;50.840;3.396;2022-09-13T05:29:31;26.20;54.60
14705;DHT22;7442;50.840;3.396;2022-09-13T05:32:02;26.20;54.70
14705;DHT22;7442;50.840;3.396;2022-09-13T05:34:32;26.10;55.10
14705;DHT22;7442;50.840;3.396;2022-09-13T05:37:03;26.10;55.50
14705;DHT22;7442;50.840;3.396;2022-09-13T05:39:33;26.20;54.90
14705;DHT22;7442;50.840;3.396;2022-09-13T05:42:04;26.20;54.80
14705;DHT22;7442;50.840;3.396;2022-09-13T05:44:35;26.20;54.80
14705;DHT22;7442;50.840;3.396;2022-09-13T05:47:05;26.30;55.00
14705;DHT22;7442;50.840;3.396;2022-09-13T05:49:35;26.30;54.80
14705;DHT22;7442;50.840;3.396;2022-09-13T05:52:05;26.40;55.30
14705;DHT22;7442;50.840;3.396;2022-09-13T05:54:35;26.40;54.70
14705;DHT22;7442;50.840;3.396;2022-09-13T05:57:05;26.30;55.00
14705;DHT22;7442;50.840;3.396;2022-09-13T05:59:35;26.30;54.70
14705;DHT22;7442;50.840;3.396;2022-09-13T06:02:07;26.30;54.90
14705;DHT22;7442;50.840;3.396;2022-09-13T06:04:38;26.30;55.10
14705;DHT22;7442;50.840;3.396;2022-09-13T06:07:10;26.20;55.10
14705;DHT22;7442;50.840;3.396;2022-09-13T06:09:40;26.20;55.30
14705;DHT22;7442;50.840;3.396;2022-09-13T06:12:10;26.20;55.20
14705;DHT22;7442;50.840;3.396;2022-09-13T06:14:40;26.30;55.30
14705;DHT22;7442;50.840;3.396;2022-09-13T06:17:11;26.30;55.20
14705;DHT22;7442;50.840;3.396;2022-09-13T06:19:41;26.30;55.10
14705;DHT22;7442;50.840;3.396;2022-09-13T06:22:12;26.40;55.10
14705;DHT22;7442;50.840;3.396;2022-09-13T06:24:42;26.40;54.80
14705;DHT22;7442;50.840;3.396;2022-09-13T06:27:12;26.50;54.80
14705;DHT22;7442;50.840;3.396;2022-09-13T06:29:42;26.40;54.70
14705;DHT22;7442;50.840;3.396;2022-09-13T06:32:12;26.40;54.90
14705;DHT22;7442;50.840;3.396;2022-09-13T06:34:42;26.40;54.80
14705;DHT22;7442;50.840;3.396;2022-09-13T06:37:13;26.40;54.80
14705;DHT22;7442;50.840;3.396;2022-09-13T06:39:43;26.40;54.80
14705;DHT22;7442;50.840;3.396;2022-09-13T06:42:13;26.40;54.90
14705;DHT22;7442;50.840;3.396;2022-09-13T06:44:43;26.40;54.80
14705;DHT22;7442;50.840;3.396;2022-09-13T06:47:15;26.50;54.80
14705;DHT22;7442;50.840;3.396;2022-09-13T06:49:45;26.50;54.80
14705;DHT22;7442;50.840;3.396;2022-09-13T06:52:16;26.50;54.70
14705;DHT22;7442;50.840;3.396;2022-09-13T06:54:46;26.50;54.70
14705;DHT22;7442;50.840;3.396;2022-09-13T06:57:16;26.50;54.60
14705;DHT22;7442;50.840;3.396;2022-09-13T06:59:46;26.50;54.70
14705;DHT22;7442;50.840;3.396;2022-09-13T07:02:20;26.50;54.70
14705;DHT22;7442;50.840;3.396;2022-09-13T07:04:52;26.50;54.70
14705;DHT22;7442;50.840;3.396;2022-09-13T07:07:22;26.50;54.70
14705;DHT22;7442;50.840;3.396;2022-09-13T07:09:52;26.50;54.70
14705;DHT22;7442;50.840;3.396;2022-09-13T07:12:22;26.50;54.60
14705;DHT22;7442;50.840;3.396;2022-09-13T07:14:52;26.50;54.60
14705;DHT22;7442;50.840;3.396;2022-09-13T07:17:22;26.60;54.60
14705;DHT22;7442;50.840;3.396;2022-09-13T07:19:52;26.60;54.40
14705;DHT22;7442;50.840;3.396;2022-09-13T07:22:24;26.60;54.50
14705;DHT22;7442;50.840;3.396;2022-09-13T07:24:59;26.60;54.40
14705;DHT22;7442;50.840;3.396;2022-09-13T07:27:33;26.60;54.50
14705;DHT22;7442;50.840;3.396;2022-09-13T07:30:04;26.60;54.50
14705;DHT22;7442;50.840;3.396;2022-09-13T07:32:38;26.60;54.40
14705;DHT22;7442;50.840;3.396;2022-09-13T07:35:09;26.70;54.40
14705;DHT22;7442;50.840;3.396;2022-09-13T07:37:43;26.60;54.30
14705;DHT22;7442;50.840;3.396;2022-09-13T07:40:14;26.70;54.40
14705;DHT22;7442;50.840;3.396;2022-09-13T07:42:51;26.60;54.40
14705;DHT22;7442;50.840;3.396;2022-09-13T07:45:21;26.60;54.40
14705;DHT22;7442;50.840;3.396;2022-09-13T07:47:51;26.60;54.50
14705;DHT22;7442;50.840;3.396;2022-09-13T07:50:22;26.60;54.40
14705;DHT22;7442;50.840;3.396;2022-09-13T07:52:52;26.60;54.40
14705;DHT22;7442;50.840;3.396;2022-09-13T07:55:22;26.60;54.40
14705;DHT22;7442;50.840;3.396;2022-09-13T07:57:53;26.60;54.40
14705;DHT22;7442;50.840;3.396;2022-09-13T08:00:22;26.70;54.40
14705;DHT22;7442;50.840;3.396;2022-09-13T08:02:54;26.60;55.00
14705;DHT22;7442;50.840;3.396;2022-09-13T08:05:24;26.70;54.40
14705;DHT22;7442;50.840;3.396;2022-09-13T08:07:54;26.60;54.30
14705;DHT22;7442;50.840;3.396;2022-09-13T08:10:24;26.70;54.30
14705;DHT22;7442;50.840;3.396;2022-09-13T08:12:54;26.80;54.20
14705;DHT22;7442;50.840;3.396;2022-09-13T08:15:24;26.90;53.90
14705;DHT22;7442;50.840;3.396;2022-09-13T08:17:54;27.00;53.90
14705;DHT22;7442;50.840;3.396;2022-09-13T08:20:24;27.00;53.90
14705;DHT22;7442;50.840;3.396;2022-09-13T08:22:54;27.10;53.80
14705;DHT22;7442;50.840;3.396;2022-09-13T08:25:24;27.10;53.80
14705;DHT22;7442;50.840;3.396;2022-09-13T08:27:55;27.10;53.80
14705;DHT22;7442;50.840;3.396;2022-09-13T08:30:25;27.10;53.80
14705;DHT22;7442;50.840;3.396;2022-09-13T08:33:01;27.10;53.80
14705;DHT22;7442;50.840;3.396;2022-09-13T08:35:32;27.20;53.70
14705;DHT22;7442;50.840;3.396;2022-09-13T08:38:04;27.20;53.60
14705;DHT22;7442;50.840;3.396;2022-09-13T08:40:39;27.00;54.30
14705;DHT22;7442;50.840;3.396;2022-09-13T08:46:28;27.00;53.90
14705;DHT22;7442;50.840;3.396;2022-09-13T08:49:03;27.00;54.10
14705;DHT22;7442;50.840;3.396;2022-09-13T08:51:43;27.00;54.40
14705;DHT22;7442;50.840;3.396;2022-09-13T08:54:13;27.10;54.00
14705;DHT22;7442;50.840;3.396;2022-09-13T09:05:18;27.40;53.20
14705;DHT22;7442;50.840;3.396;2022-09-13T09:07:51;27.40;53.30
14705;DHT22;7442;50.840;3.396;2022-09-13T09:10:24;27.30;53.70
14705;DHT22;7442;50.840;3.396;2022-09-13T09:13:18;27.20;53.50
14705;DHT22;7442;50.840;3.396;2022-09-13T09:15:49;27.20;53.80
14705;DHT22;7442;50.840;3.396;2022-09-13T09:18:28;27.10;54.20
14705;DHT22;7442;50.840;3.396;2022-09-13T09:20:59;27.10;54.00
14705;DHT22;7442;50.840;3.396;2022-09-13T09:23:38;27.00;54.00
14705;DHT22;7442;50.840;3.396;2022-09-13T09:26:17;27.10;53.90
14705;DHT22;7442;50.840;3.396;2022-09-13T09:28:55;27.10;53.80
14705;DHT22;7442;50.840;3.396;2022-09-13T09:34:09;27.10;54.10
14705;DHT22;7442;50.840;3.396;2022-09-13T09:36:44;27.00;54.80
14705;DHT22;7442;50.840;3.396;2022-09-13T09:39:13;27.10;54.70
14705;DHT22;7442;50.840;3.396;2022-09-13T09:41:44;27.00;55.20
14705;DHT22;7442;50.840;3.396;2022-09-13T09:44:22;27.20;54.30
14705;DHT22;7442;50.840;3.396;2022-09-13T09:47:02;27.30;53.90
14705;DHT22;7442;50.840;3.396;2022-09-13T09:49:38;27.30;53.70
14705;DHT22;7442;50.840;3.396;2022-09-13T09:52:35;27.20;54.30
14705;DHT22;7442;50.840;3.396;2022-09-13T09:58:07;27.20;54.70
14705;DHT22;7442;50.840;3.396;2022-09-13T10:00:53;27.20;55.40
14705;DHT22;7442;50.840;3.396;2022-09-13T10:03:27;27.10;55.50
14705;DHT22;7442;50.840;3.396;2022-09-13T10:06:17;27.10;56.00
14705;DHT22;7442;50.840;3.396;2022-09-13T10:09:13;27.20;55.70
14705;DHT22;7442;50.840;3.396;2022-09-13T10:11:52;27.20;55.50
14705;DHT22;7442;50.840;3.396;2022-09-13T10:17:25;27.10;56.20
14705;DHT22;7442;50.840;3.396;2022-09-13T10:19:57;27.20;56.40
14705;DHT22;7442;50.840;3.396;2022-09-13T10:22:30;27.10;56.30
14705;DHT22;7442;50.840;3.396;2022-09-13T10:25:17;27.10;56.20
14705;DHT22;7442;50.840;3.396;2022-09-13T10:27:51;27.00;56.30
14705;DHT22;7442;50.840;3.396;2022-09-13T10:30:37;27.10;56.30
14705;DHT22;7442;50.840;3.396;2022-09-13T10:33:05;27.10;56.20
14705;DHT22;7442;50.840;3.396;2022-09-13T10:35:37;27.10;56.10
14705;DHT22;7442;50.840;3.396;2022-09-13T10:38:25;27.10;56.00
14705;DHT22;7442;50.840;3.396;2022-09-13T10:40:57;27.10;56.40
14705;DHT22;7442;50.840;3.396;2022-09-13T10:43:29;27.10;56.60
14705;DHT22;7442;50.840;3.396;2022-09-13T10:46:03;27.10;56.50
14705;DHT22;7442;50.840;3.396;2022-09-13T10:48:45;27.10;56.60
14705;DHT22;7442;50.840;3.396;2022-09-13T10:54:18;27.10;56.90
14705;DHT22;7442;50.840;3.396;2022-09-13T10:56:49;27.10;56.80
14705;DHT22;7442;50.840;3.396;2022-09-13T11:02:21;27.10;57.50
14705;DHT22;7442;50.840;3.396;2022-09-13T11:13:27;27.20;57.20
14705;DHT22;7442;50.840;3.396;2022-09-13T11:18:55;27.20;57.40
14705;DHT22;7442;50.840;3.396;2022-09-13T11:24:20;27.00;57.70
14705;DHT22;7442;50.840;3.396;2022-09-13T11:27:11;27.10;57.70
14705;DHT22;7442;50.840;3.396;2022-09-13T11:29:47;27.10;57.50
14705;DHT22;7442;50.840;3.396;2022-09-13T11:32:19;27.20;57.00
14705;DHT22;7442;50.840;3.396;2022-09-13T11:43:37;27.20;57.50
14705;DHT22;7442;50.840;3.396;2022-09-13T11:54:59;27.10;60.00
14705;DHT22;7442;50.840;3.396;2022-09-13T11:57:32;27.10;59.90
14705;DHT22;7442;50.840;3.396;2022-09-13T12:00:17;27.00;60.20
14705;DHT22;7442;50.840;3.396;2022-09-13T12:05:44;27.00;62.00
14705;DHT22;7442;50.840;3.396;2022-09-13T12:08:23;27.00;62.60
14705;DHT22;7442;50.840;3.396;2022-09-13T12:11:05;27.20;62.90
14705;DHT22;7442;50.840;3.396;2022-09-13T12:13:46;27.20;62.70
14705;DHT22;7442;50.840;3.396;2022-09-13T12:16:36;27.20;63.00
14705;DHT22;7442;50.840;3.396;2022-09-13T12:19:03;27.20;63.40
14705;DHT22;7442;50.840;3.396;2022-09-13T12:21:35;27.30;63.40
14705;DHT22;7442;50.840;3.396;2022-09-13T12:24:17;27.20;63.10
14705;DHT22;7442;50.840;3.396;2022-09-13T12:26:54;27.10;64.60
14705;DHT22;7442;50.840;3.396;2022-09-13T12:29:35;27.00;65.20
14705;DHT22;7442;50.840;3.396;2022-09-13T12:32:08;27.00;65.00
14705;DHT22;7442;50.840;3.396;2022-09-13T12:34:45;27.00;65.50
14705;DHT22;7442;50.840;3.396;2022-09-13T12:37:26;27.00;66.10
14705;DHT22;7442;50.840;3.396;2022-09-13T12:46:00;27.00;66.70
14705;DHT22;7442;50.840;3.396;2022-09-13T12:51:19;26.80;67.80
14705;DHT22;7442;50.840;3.396;2022-09-13T12:59:40;26.90;68.10
14705;DHT22;7442;50.840;3.396;2022-09-13T13:02:29;26.90;67.50
14705;DHT22;7442;50.840;3.396;2022-09-13T13:07:59;26.70;67.00
14705;DHT22;7442;50.840;3.396;2022-09-13T13:10:34;26.70;68.00
14705;DHT22;7442;50.840;3.396;2022-09-13T13:13:30;26.70;68.40
14705;DHT22;7442;50.840;3.396;2022-09-13T13:15:58;26.70;68.70
14705;DHT22;7442;50.840;3.396;2022-09-13T13:18:31;26.70;68.80
14705;DHT22;7442;50.840;3.396;2022-09-13T13:21:04;26.70;68.30
14705;DHT22;7442;50.840;3.396;2022-09-13T13:23:36;26.70;68.30
14705;DHT22;7442;50.840;3.396;2022-09-13T13:26:42;26.80;67.80
14705;DHT22;7442;50.840;3.396;2022-09-13T13:28:50;27.00;67.20
14705;DHT22;7442;50.840;3.396;2022-09-13T13:42:02;26.60;68.50
14705;DHT22;7442;50.840;3.396;2022-09-13T13:44:53;26.50;69.60
14705;DHT22;7442;50.840;3.396;2022-09-13T13:49:52;26.30;69.80
14705;DHT22;7442;50.840;3.396;2022-09-13T13:55:00;26.20;70.40
14705;DHT22;7442;50.840;3.396;2022-09-13T13:57:49;26.10;71.10
14705;DHT22;7442;50.840;3.396;2022-09-13T14:00:19;26.00;71.00
14705;DHT22;7442;50.840;3.396;2022-09-13T14:03:04;26.10;71.40
14705;DHT22;7442;50.840;3.396;2022-09-13T14:11:19;26.30;71.30
14705;DHT22;7442;50.840;3.396;2022-09-13T14:16:45;26.40;70.60
14705;DHT22;7442;50.840;3.396;2022-09-13T14:19:17;26.40;70.60
14705;DHT22;7442;50.840;3.396;2022-09-13T14:27:36;26.40;70.70
14705;DHT22;7442;50.840;3.396;2022-09-13T14:30:19;26.50;70.90
14705;DHT22;7442;50.840;3.396;2022-09-13T14:32:56;26.50;71.00
14705;DHT22;7442;50.840;3.396;2022-09-13T14:35:29;26.60;71.50
14705;DHT22;7442;50.840;3.396;2022-09-13T14:38:20;26.60;71.50
14705;DHT22;7442;50.840;3.396;2022-09-13T14:40:52;26.60;71.70
14705;DHT22;7442;50.840;3.396;2022-09-13T14:43:24;26.60;72.00
14705;DHT22;7442;50.840;3.396;2022-09-13T14:46:14;26.60;71.50
14705;DHT22;7442;50.840;3.396;2022-09-13T14:48:51;26.60;71.50
14705;DHT22;7442;50.840;3.396;2022-09-13T14:51:40;26.70;71.50
14705;DHT22;7442;50.840;3.396;2022-09-13T14:54:19;26.70;71.20
14705;DHT22;7442;50.840;3.396;2022-09-13T14:56:53;26.70;71.60
14705;DHT22;7442;50.840;3.396;2022-09-13T14:59:33;26.60;71.40
14705;DHT22;7442;50.840;3.396;2022-09-13T15:02:18;26.60;70.80
14705;DHT22;7442;50.840;3.396;2022-09-13T15:04:54;26.60;71.30
14705;DHT22;7442;50.840;3.396;2022-09-13T15:07:31;26.50;71.40
14705;DHT22;7442;50.840;3.396;2022-09-13T15:10:25;26.50;71.50
14705;DHT22;7442;50.840;3.396;2022-09-13T15:13:08;26.50;71.50
14705;DHT22;7442;50.840;3.396;2022-09-13T15:15:40;26.50;71.50
14705;DHT22;7442;50.840;3.396;2022-09-13T15:18:24;26.30;72.10
14705;DHT22;7442;50.840;3.396;2022-09-13T15:21:00;26.30;72.30
14705;DHT22;7442;50.840;3.396;2022-09-13T15:23:40;26.40;71.90
14705;DHT22;7442;50.840;3.396;2022-09-13T15:26:21;26.40;72.10
14705;DHT22;7442;50.840;3.396;2022-09-13T15:28:56;26.40;71.40
14705;DHT22;7442;50.840;3.396;2022-09-13T15:31:29;26.40;71.40
14705;DHT22;7442;50.840;3.396;2022-09-13T15:34:22;26.40;71.40
14705;DHT22;7442;50.840;3.396;2022-09-13T15:39:50;26.30;71.90
14705;DHT22;7442;50.840;3.396;2022-09-13T15:42:21;26.30;71.70
14705;DHT22;7442;50.840;3.396;2022-09-13T15:44:51;26.20;71.80
14705;DHT22;7442;50.840;3.396;2022-09-13T15:47:21;26.30;71.70
14705;DHT22;7442;50.840;3.396;2022-09-13T15:49:51;26.20;71.80
14705;DHT22;7442;50.840;3.396;2022-09-13T15:52:21;26.20;72.00
14705;DHT22;7442;50.840;3.396;2022-09-13T15:54:52;26.20;72.50
14705;DHT22;7442;50.840;3.396;2022-09-13T15:57:23;26.20;72.20
14705;DHT22;7442;50.840;3.396;2022-09-13T15:59:54;26.20;72.50
14705;DHT22;7442;50.840;3.396;2022-09-13T16:02:29;26.30;72.70
14705;DHT22;7442;50.840;3.396;2022-09-13T16:04:59;26.30;72.70
14705;DHT22;7442;50.840;3.396;2022-09-13T16:07:29;26.20;73.30
14705;DHT22;7442;50.840;3.396;2022-09-13T16:09:59;26.30;73.20
14705;DHT22;7442;50.840;3.396;2022-09-13T16:12:29;26.40;73.00
14705;DHT22;7442;50.840;3.396;2022-09-13T16:14:59;26.40;72.80
14705;DHT22;7442;50.840;3.396;2022-09-13T16:17:29;26.40;73.10
14705;DHT22;7442;50.840;3.396;2022-09-13T16:19:59;26.50;73.30
14705;DHT22;7442;50.840;3.396;2022-09-13T16:22:29;26.40;73.70
14705;DHT22;7442;50.840;3.396;2022-09-13T16:25:00;26.30;73.50
14705;DHT22;7442;50.840;3.396;2022-09-13T16:27:30;26.30;73.50
14705;DHT22;7442;50.840;3.396;2022-09-13T16:30:00;26.30;73.90
14705;DHT22;7442;50.840;3.396;2022-09-13T16:32:30;26.30;74.70
14705;DHT22;7442;50.840;3.396;2022-09-13T16:35:00;26.20;74.10
14705;DHT22;7442;50.840;3.396;2022-09-13T16:37:31;26.20;74.40
14705;DHT22;7442;50.840;3.396;2022-09-13T16:40:01;26.10;74.50
14705;DHT22;7442;50.840;3.396;2022-09-13T16:42:32;26.10;74.40
14705;DHT22;7442;50.840;3.396;2022-09-13T16:45:03;26.10;73.90
14705;DHT22;7442;50.840;3.396;2022-09-13T16:47:33;26.10;73.60
14705;DHT22;7442;50.840;3.396;2022-09-13T16:50:04;26.10;73.20
14705;DHT22;7442;50.840;3.396;2022-09-13T16:52:36;26.10;73.20
14705;DHT22;7442;50.840;3.396;2022-09-13T16:55:07;26.10;73.50
14705;DHT22;7442;50.840;3.396;2022-09-13T16:57:37;25.90;73.60
14705;DHT22;7442;50.840;3.396;2022-09-13T17:00:08;25.90;73.70
14705;DHT22;7442;50.840;3.396;2022-09-13T17:02:39;25.90;73.90
14705;DHT22;7442;50.840;3.396;2022-09-13T17:05:09;26.00;73.60
14705;DHT22;7442;50.840;3.396;2022-09-13T17:07:40;26.10;73.00
14705;DHT22;7442;50.840;3.396;2022-09-13T17:10:10;26.20;72.60
14705;DHT22;7442;50.840;3.396;2022-09-13T17:12:40;26.20;72.10
14705;DHT22;7442;50.840;3.396;2022-09-13T17:15:11;26.30;72.00
14705;DHT22;7442;50.840;3.396;2022-09-13T17:17:42;26.30;71.80
14705;DHT22;7442;50.840;3.396;2022-09-13T17:20:12;26.30;71.30
14705;DHT22;7442;50.840;3.396;2022-09-13T17:22:42;26.40;71.20
14705;DHT22;7442;50.840;3.396;2022-09-13T17:25:12;26.50;70.90
14705;DHT22;7442;50.840;3.396;2022-09-13T17:27:48;26.50;70.80
14705;DHT22;7442;50.840;3.396;2022-09-13T17:30:18;26.50;70.50
14705;DHT22;7442;50.840;3.396;2022-09-13T17:32:48;26.60;70.00
14705;DHT22;7442;50.840;3.396;2022-09-13T17:35:19;26.60;70.00
14705;DHT22;7442;50.840;3.396;2022-09-13T17:37:50;26.50;70.70
14705;DHT22;7442;50.840;3.396;2022-09-13T17:40:20;26.50;69.90
14705;DHT22;7442;50.840;3.396;2022-09-13T17:42:50;26.50;69.80
14705;DHT22;7442;50.840;3.396;2022-09-13T17:45:21;26.60;69.80
14705;DHT22;7442;50.840;3.396;2022-09-13T17:47:52;26.60;69.50
14705;DHT22;7442;50.840;3.396;2022-09-13T17:50:22;26.60;69.40
14705;DHT22;7442;50.840;3.396;2022-09-13T17:52:52;26.50;69.30
14705;DHT22;7442;50.840;3.396;2022-09-13T17:55:22;26.50;69.00
14705;DHT22;7442;50.840;3.396;2022-09-13T17:57:53;26.60;69.10
14705;DHT22;7442;50.840;3.396;2022-09-13T18:00:23;26.60;69.10
14705;DHT22;7442;50.840;3.396;2022-09-13T18:02:54;26.60;68.70
14705;DHT22;7442;50.840;3.396;2022-09-13T18:05:24;26.60;68.80
14705;DHT22;7442;50.840;3.396;2022-09-13T18:07:55;26.50;69.10
14705;DHT22;7442;50.840;3.396;2022-09-13T18:10:25;26.50;68.60
14705;DHT22;7442;50.840;3.396;2022-09-13T18:12:55;26.60;68.70
14705;DHT22;7442;50.840;3.396;2022-09-13T18:15:25;26.50;68.80
14705;DHT22;7442;50.840;3.396;2022-09-13T18:17:55;26.40;69.10
14705;DHT22;7442;50.840;3.396;2022-09-13T18:20:25;26.50;68.90
14705;DHT22;7442;50.840;3.396;2022-09-13T18:22:56;26.50;68.90
14705;DHT22;7442;50.840;3.396;2022-09-13T18:25:26;26.40;68.80
14705;DHT22;7442;50.840;3.396;2022-09-13T18:27:56;26.40;68.80
14705;DHT22;7442;50.840;3.396;2022-09-13T18:30:26;26.50;68.90
14705;DHT22;7442;50.840;3.396;2022-09-13T18:32:56;26.50;68.80
14705;DHT22;7442;50.840;3.396;2022-09-13T18:35:26;26.50;68.40
14705;DHT22;7442;50.840;3.396;2022-09-13T18:37:56;26.50;68.60
14705;DHT22;7442;50.840;3.396;2022-09-13T18:40:28;26.50;68.20
14705;DHT22;7442;50.840;3.396;2022-09-13T18:42:58;26.60;68.20
14705;DHT22;7442;50.840;3.396;2022-09-13T18:45:28;26.60;68.20
14705;DHT22;7442;50.840;3.396;2022-09-13T18:47:59;26.50;68.50
14705;DHT22;7442;50.840;3.396;2022-09-13T18:50:29;26.60;68.20
14705;DHT22;7442;50.840;3.396;2022-09-13T18:52:59;26.70;67.90
14705;DHT22;7442;50.840;3.396;2022-09-13T18:55:29;26.70;67.80
14705;DHT22;7442;50.840;3.396;2022-09-13T18:57:59;26.60;68.00
14705;DHT22;7442;50.840;3.396;2022-09-13T19:00:29;26.60;68.10